Pagrindinis puslapis
METAR-TAF:

METAR-TAF

Oro uostai :

Tel Avivas-Ben Gurion, Izraelis

platuma: 32-00N, ilguma: 034-54E, Aukštis: 40 m

Dabartinis oras

Ataskaita buvo paskelbta 26 minutes, ne 04:50 UTC
Vėjas 5 kt iš Pietų
Temperatūra 23°C
Drėgmė 57%
Slėgis 1012 hPa
Matomumas: 8000 m

METAR: LLBG 220450Z 18005KT 8000 NSC 23/14 Q1012 NOSIG

Laikas: 08:16 (05:16 UTC)

Prognozė

Ataskaita buvo paskelbta 6 valandos ir 6 minutes, ne 23:10 UTC
Prognozė galioja nuo 22 metu 00 UTC su 22 metu 24 UTC
Vėjas 4 kt nuo kintamojo kryptimis
Matomumas 10 km arba daugiau
nėra debesų žemiau 1500 m ir nėra kamuolinių lietaus debesų
Tikimybė 30%
nuo 22 metu 02 UTC su 22 metu 05 UTC
Matomumas: 7000 m
Išsisklaidę debesys ne aukštis 1500 ft
Tapsmas
nuo 22 metu 07 UTC su 22 metu 09 UTC
Vėjas 10 kt iš Vakarų/Šiaurės Vakarų
Tapsmas
nuo 22 metu 16 UTC su 22 metu 18 UTC
Vėjas 4 kt nuo kintamojo kryptimis

TAF: LLBG 212310Z 2200/2224 VRB04KT CAVOK PROB30 2202/2205 7000 SCT015 BECMG 2207/2209 29010KT BECMG 2216/2218 VRB04KT TX31/2211Z TN20/2203Z

Orai ataskaitas ir orų prognozės (METAR, TAF).

turimą stotys yra geltonos ir raudonos taškus žemėlapyje.

Perkelti pele per norėdami pamatyti stoties vardą.

Tada spustelėkite, norėdami matyti oro stebėjimo ir prognozės.

Norėdami pakeisti žemėlapį: spustelėkite ant žalios mygtukų su juodo kryžiaus žemyn,; žalią mygtuką su brūkšneliu, jei norite nutolinti; arba žalių rodyklių gretimoms žemėlapius.


METAR-TAF: